Time;durP1;ratioP1;P1;durP2;ratioP2;P2;SDS_P1;SDS_P2;PMS_P1;PMS_P2;Temp;Humidity;BMP_temperature;BMP_pressure;BME280_temperature;BME280_humidity;BME280_pressure;Samples;Min_cycle;Max_cycle;Signal;HPM_P1;HPM_P2
2023/04/19 00:01:36;;;;;;;18.38;14.98;;;10.20;99.90;;;;;;4989211;28;20081;-70
2023/04/19 00:04:02;;;;;;;16.33;14.38;;;10.20;99.90;;;;;;4998896;28;20457;-70
2023/04/19 00:06:29;;;;;;;17.42;15.38;;;10.10;99.90;;;;;;4988745;28;20042;-70
2023/04/19 00:08:56;;;;;;;17.83;14.82;;;10.10;99.90;;;;;;5001880;28;20038;-70
2023/04/19 00:11:22;;;;;;;19.15;14.82;;;10.10;99.90;;;;;;4986506;28;20153;-70
2023/04/19 00:13:48;;;;;;;17.70;14.52;;;10.00;99.90;;;;;;4998179;28;20736;-70
2023/04/19 00:16:14;;;;;;;16.92;13.98;;;10.10;99.90;;;;;;4977468;28;20144;-70
2023/04/19 00:18:40;;;;;;;16.00;13.55;;;10.00;99.90;;;;;;4980568;28;20054;-70
2023/04/19 00:21:06;;;;;;;16.02;14.13;;;10.00;99.90;;;;;;5000326;28;20030;-70
2023/04/19 00:23:32;;;;;;;16.70;13.70;;;10.00;99.90;;;;;;5000052;28;20045;-70
2023/04/19 00:25:57;;;;;;;16.42;13.27;;;10.10;99.90;;;;;;5002725;28;20041;-70
2023/04/19 00:28:24;;;;;;;15.20;13.38;;;10.10;99.90;;;;;;5003974;28;20042;-70
2023/04/19 00:30:50;;;;;;;15.20;12.98;;;10.00;99.90;;;;;;4995982;28;20127;-70
2023/04/19 00:33:15;;;;;;;15.57;13.65;;;10.00;99.90;;;;;;4977207;28;20069;-70
2023/04/19 00:35:41;;;;;;;14.98;12.90;;;10.10;99.90;;;;;;4977898;28;20140;-70
2023/04/19 00:38:07;;;;;;;13.63;11.43;;;10.10;99.90;;;;;;4994918;28;20674;-70
2023/04/19 00:40:33;;;;;;;15.98;12.57;;;10.10;99.90;;;;;;4993350;28;20038;-70
2023/04/19 00:42:58;;;;;;;15.55;12.13;;;10.10;99.90;;;;;;4974646;28;20056;-70
2023/04/19 00:45:25;;;;;;;15.13;12.07;;;10.10;99.90;;;;;;4997756;28;20148;-70
2023/04/19 00:47:51;;;;;;;15.18;12.23;;;10.00;99.90;;;;;;5003957;28;20129;-70
2023/04/19 00:50:17;;;;;;;14.68;13.00;;;10.00;99.90;;;;;;4998847;28;20033;-70
2023/04/19 00:52:43;;;;;;;14.23;11.90;;;10.10;99.90;;;;;;5000301;28;20487;-70
2023/04/19 00:55:09;;;;;;;13.10;11.70;;;9.90;99.90;;;;;;4996974;28;20077;-71
2023/04/19 00:57:36;;;;;;;15.10;11.73;;;10.00;99.90;;;;;;4983650;28;20143;-70
2023/04/19 01:00:05;;;;;;;14.25;11.93;;;10.00;99.90;;;;;;5002092;28;20034;-70
2023/04/19 01:02:31;;;;;;;14.25;11.88;;;10.00;99.90;;;;;;4996248;28;20041;-71
2023/04/19 01:04:57;;;;;;;14.02;11.30;;;10.00;99.90;;;;;;4998841;28;20401;-70
2023/04/19 01:07:22;;;;;;;15.88;12.05;;;10.00;99.90;;;;;;4998096;28;20041;-70
2023/04/19 01:09:48;;;;;;;15.10;11.05;;;10.00;99.90;;;;;;4976613;28;20061;-70
2023/04/19 01:12:14;;;;;;;14.10;11.05;;;10.00;99.90;;;;;;4990567;28;20570;-70
2023/04/19 01:14:40;;;;;;;12.90;10.30;;;10.00;99.90;;;;;;4983913;28;20103;-71
2023/04/19 01:17:07;;;;;;;12.80;10.70;;;10.00;99.90;;;;;;4991251;28;20054;-71
2023/04/19 01:19:37;;;;;;;13.07;10.30;;;9.90;99.90;;;;;;4973760;28;20069;-70
2023/04/19 01:22:03;;;;;;;13.07;9.93;;;9.90;99.90;;;;;;4986196;28;20045;-71
2023/04/19 01:24:29;;;;;;;12.02;9.23;;;9.90;99.90;;;;;;4996644;28;20042;-70
2023/04/19 01:26:55;;;;;;;13.40;9.43;;;9.90;99.90;;;;;;5002658;28;20034;-70
2023/04/19 01:29:24;;;;;;;12.30;9.20;;;9.90;99.90;;;;;;4999855;28;20146;-70
2023/04/19 01:31:52;;;;;;;12.65;9.65;;;9.90;99.90;;;;;;4982542;28;20056;-70
2023/04/19 01:34:18;;;;;;;12.63;9.60;;;9.90;99.90;;;;;;4980963;28;20649;-70
2023/04/19 01:36:44;;;;;;;10.27;9.13;;;9.80;99.90;;;;;;4993369;28;20076;-70
2023/04/19 01:39:10;;;;;;;13.32;8.98;;;9.90;99.90;;;;;;4982640;28;20045;-70
2023/04/19 01:41:36;;;;;;;14.27;9.00;;;9.80;99.90;;;;;;4989656;28;20050;-70
2023/04/19 01:44:02;;;;;;;14.60;9.10;;;9.80;99.90;;;;;;5003284;28;20045;-70
2023/04/19 01:46:28;;;;;;;14.68;9.32;;;9.80;99.90;;;;;;4998265;28;20106;-70
2023/04/19 01:48:53;;;;;;;11.65;9.32;;;9.80;99.90;;;;;;4998074;28;20044;-70
2023/04/19 01:51:20;;;;;;;11.23;9.10;;;9.80;99.90;;;;;;5001039;28;20081;-70
2023/04/19 01:53:51;;;;;;;12.35;8.63;;;9.80;99.90;;;;;;4996480;28;20043;-70
2023/04/19 01:56:17;;;;;;;12.50;9.15;;;9.80;99.90;;;;;;5002772;28;20050;-70
2023/04/19 01:58:44;;;;;;;11.75;8.85;;;9.70;99.90;;;;;;4987129;28;20536;-70
2023/04/19 02:01:11;;;;;;;12.95;9.57;;;9.70;99.90;;;;;;5003405;28;20141;-70
2023/04/19 02:03:37;;;;;;;11.55;9.50;;;9.70;99.90;;;;;;5005688;28;20084;-70
2023/04/19 02:06:03;;;;;;;10.10;8.73;;;9.70;99.90;;;;;;5006711;28;20096;-70
2023/04/19 02:08:29;;;;;;;11.95;9.15;;;9.70;99.90;;;;;;4998048;28;20046;-70
2023/04/19 02:10:55;;;;;;;12.02;9.48;;;9.70;99.90;;;;;;4995221;28;20037;-70
2023/04/19 02:13:21;;;;;;;14.57;9.52;;;9.70;99.90;;;;;;4977605;28;20654;-70
2023/04/19 02:15:46;;;;;;;12.20;9.55;;;9.60;99.90;;;;;;5006316;28;20057;-70
2023/04/19 02:18:12;;;;;;;11.85;8.93;;;9.60;99.90;;;;;;4979322;28;20045;-70
2023/04/19 02:20:38;;;;;;;11.80;9.02;;;9.60;99.80;;;;;;5004778;28;20044;-70
2023/04/19 02:23:04;;;;;;;12.70;9.40;;;9.60;99.40;;;;;;4980226;28;20596;-71
2023/04/19 02:25:30;;;;;;;13.75;9.48;;;9.50;99.10;;;;;;5002465;28;20068;-70
2023/04/19 02:27:55;;;;;;;11.90;9.43;;;9.50;98.70;;;;;;4980826;28;20084;-70
2023/04/19 02:30:21;;;;;;;12.18;9.30;;;9.50;98.40;;;;;;4977210;28;20074;-70
2023/04/19 02:32:48;;;;;;;13.90;9.05;;;9.50;98.10;;;;;;5004064;28;20184;-70
2023/04/19 02:35:13;;;;;;;11.98;9.60;;;9.50;97.90;;;;;;4998273;28;20049;-70
2023/04/19 02:37:39;;;;;;;11.80;8.70;;;9.40;97.50;;;;;;4996301;28;20049;-70
2023/04/19 02:40:07;;;;;;;12.00;9.23;;;9.40;96.90;;;;;;4979236;28;20042;-70
2023/04/19 02:42:33;;;;;;;12.20;9.10;;;9.40;96.40;;;;;;4997009;28;20046;-70
2023/04/19 02:44:59;;;;;;;12.40;8.60;;;9.30;95.80;;;;;;5002403;28;20452;-70
2023/04/19 02:47:24;;;;;;;12.63;8.38;;;9.40;95.30;;;;;;5002526;28;20052;-70
2023/04/19 02:49:53;;;;;;;11.50;9.18;;;9.40;94.70;;;;;;4991448;28;20081;-70
2023/04/19 02:52:19;;;;;;;10.98;8.55;;;9.40;94.20;;;;;;5003236;28;20042;-70
2023/04/19 02:54:44;;;;;;;11.18;8.57;;;9.30;93.70;;;;;;4997839;28;20056;-70
2023/04/19 02:57:10;;;;;;;10.68;8.48;;;9.30;93.40;;;;;;5003864;28;20045;-70
2023/04/19 02:59:36;;;;;;;12.63;8.55;;;9.30;92.90;;;;;;5002421;28;20064;-70
2023/04/19 03:02:02;;;;;;;10.93;8.55;;;9.20;92.80;;;;;;4998520;28;20092;-70
2023/04/19 03:04:27;;;;;;;10.48;8.48;;;9.20;92.60;;;;;;5004601;28;20121;-70
2023/04/19 03:06:53;;;;;;;10.05;8.25;;;9.20;92.30;;;;;;5005279;28;20137;-70
2023/04/19 03:09:19;;;;;;;11.52;7.88;;;9.20;92.00;;;;;;5002144;28;20113;-70
2023/04/19 03:11:44;;;;;;;11.10;7.95;;;9.10;91.60;;;;;;4980485;28;20096;-70
2023/04/19 03:14:13;;;;;;;10.68;7.95;;;9.00;91.60;;;;;;4995291;28;20490;-70
2023/04/19 03:16:38;;;;;;;11.52;8.20;;;9.00;91.50;;;;;;5000551;28;20046;-70
2023/04/19 03:19:04;;;;;;;13.07;8.18;;;8.90;91.10;;;;;;4996901;28;20050;-70
2023/04/19 03:21:30;;;;;;;12.75;8.30;;;8.80;91.00;;;;;;4996144;28;20378;-69
2023/04/19 03:23:55;;;;;;;10.88;7.90;;;8.70;91.00;;;;;;5002361;28;20092;-70
2023/04/19 03:26:21;;;;;;;11.85;8.05;;;8.70;91.00;;;;;;4999648;28;20164;-70
2023/04/19 03:28:47;;;;;;;10.05;7.80;;;8.60;90.90;;;;;;4977162;28;20138;-70
2023/04/19 03:31:13;;;;;;;10.68;8.05;;;8.50;90.90;;;;;;4978725;28;20049;-69
2023/04/19 03:33:42;;;;;;;10.95;7.80;;;8.50;90.80;;;;;;5007604;28;20052;-70
2023/04/19 03:36:08;;;;;;;11.57;7.78;;;8.40;90.90;;;;;;4982773;28;20038;-69
2023/04/19 03:38:33;;;;;;;11.48;7.93;;;8.40;91.00;;;;;;4984500;28;20185;-69
2023/04/19 03:40:59;;;;;;;12.35;9.07;;;8.40;90.90;;;;;;4992984;28;20053;-69
2023/04/19 03:43:24;;;;;;;11.30;8.23;;;8.20;90.90;;;;;;4985912;28;20042;-69
2023/04/19 03:45:50;;;;;;;11.70;8.10;;;8.30;91.00;;;;;;4995396;28;20034;-70
2023/04/19 03:48:17;;;;;;;11.00;8.18;;;8.30;91.20;;;;;;4992811;28;20125;-69
2023/04/19 03:50:43;;;;;;;12.50;8.82;;;8.30;91.30;;;;;;4979152;28;20034;-70
2023/04/19 03:53:08;;;;;;;11.57;8.07;;;8.30;91.50;;;;;;5003397;28;20080;-69
2023/04/19 03:55:34;;;;;;;11.77;9.02;;;8.30;91.50;;;;;;4992120;28;20065;-69
2023/04/19 03:57:59;;;;;;;9.55;7.50;;;8.20;91.60;;;;;;5005047;28;20634;-69
2023/04/19 04:00:26;;;;;;;11.43;8.23;;;8.20;91.70;;;;;;5005398;28;20038;-69
2023/04/19 04:02:52;;;;;;;12.25;8.32;;;8.20;91.70;;;;;;5005140;28;20050;-69
2023/04/19 04:05:17;;;;;;;13.25;8.57;;;8.20;91.70;;;;;;4980717;28;20449;-69
2023/04/19 04:07:43;;;;;;;11.10;8.18;;;8.10;91.60;;;;;;4998652;28;20042;-69
2023/04/19 04:10:09;;;;;;;10.65;8.55;;;8.10;91.70;;;;;;4981307;28;20752;-69
2023/04/19 04:12:37;;;;;;;12.82;8.50;;;8.10;91.60;;;;;;4997062;28;20034;-69
2023/04/19 04:15:04;;;;;;;11.32;7.80;;;8.00;91.60;;;;;;5001206;28;20053;-69
2023/04/19 04:17:29;;;;;;;10.55;8.23;;;8.00;91.70;;;;;;5000875;28;20042;-69
2023/04/19 04:19:55;;;;;;;11.95;7.55;;;8.00;91.70;;;;;;4997922;28;20553;-69
2023/04/19 04:22:20;;;;;;;10.85;8.27;;;7.90;91.80;;;;;;5002622;28;20530;-69
2023/04/19 04:24:48;;;;;;;12.40;8.00;;;7.90;91.80;;;;;;4985578;28;20054;-69
2023/04/19 04:27:13;;;;;;;10.75;7.70;;;7.80;91.80;;;;;;4998021;28;20045;-69
2023/04/19 04:29:40;;;;;;;13.02;8.85;;;7.70;91.70;;;;;;5002357;28;20497;-69
2023/04/19 04:32:09;;;;;;;12.10;8.15;;;7.70;91.90;;;;;;5001621;28;20046;-69
2023/04/19 04:34:36;;;;;;;11.40;8.43;;;7.70;92.10;;;;;;5002038;28;20073;-70
2023/04/19 04:37:02;;;;;;;11.35;8.40;;;7.70;92.30;;;;;;4980380;28;20100;-69
2023/04/19 04:39:28;;;;;;;12.20;8.55;;;7.60;92.40;;;;;;5001851;28;20045;-69
2023/04/19 04:41:56;;;;;;;10.40;8.05;;;7.70;92.50;;;;;;4998757;28;20045;-69
2023/04/19 04:44:22;;;;;;;11.02;8.65;;;7.60;92.50;;;;;;4977612;28;20984;-70
2023/04/19 04:46:48;;;;;;;12.98;8.45;;;7.60;92.50;;;;;;4994870;28;20037;-69
2023/04/19 04:49:14;;;;;;;11.93;8.45;;;7.50;92.60;;;;;;4999144;28;20912;-70
2023/04/19 04:51:39;;;;;;;13.18;9.10;;;7.50;92.80;;;;;;4999436;28;20038;-69
2023/04/19 04:54:05;;;;;;;12.07;8.27;;;7.50;92.90;;;;;;4973149;28;20041;-69
2023/04/19 04:56:31;;;;;;;12.85;8.15;;;7.50;92.90;;;;;;4996082;28;20038;-69
2023/04/19 04:58:56;;;;;;;14.00;8.32;;;7.40;93.10;;;;;;5000994;28;20045;-69
2023/04/19 05:01:22;;;;;;;11.30;8.23;;;7.40;93.20;;;;;;5000525;28;20037;-69
2023/04/19 05:03:50;;;;;;;11.77;8.00;;;7.30;93.10;;;;;;4996190;28;20049;-70
2023/04/19 05:06:16;;;;;;;14.20;7.90;;;7.40;93.10;;;;;;4995533;28;20033;-70
2023/04/19 05:08:42;;;;;;;10.80;7.88;;;7.40;93.10;;;;;;5001707;28;20450;-70
2023/04/19 05:11:11;;;;;;;12.15;8.18;;;7.30;93.00;;;;;;5002562;28;20042;-68
2023/04/19 05:13:37;;;;;;;11.10;7.68;;;7.40;93.10;;;;;;4994815;28;20049;-70
2023/04/19 05:16:02;;;;;;;10.43;7.90;;;7.30;92.90;;;;;;4982576;28;20053;-69
2023/04/19 05:18:28;;;;;;;12.00;7.82;;;7.30;92.90;;;;;;5001473;28;20497;-70
2023/04/19 05:20:55;;;;;;;11.35;8.10;;;7.40;92.90;;;;;;4996866;28;20723;-70
2023/04/19 05:23:21;;;;;;;9.82;7.72;;;7.40;92.90;;;;;;5003299;28;20049;-69
2023/04/19 05:25:46;;;;;;;13.23;7.68;;;7.40;92.80;;;;;;4998927;28;20050;-69
2023/04/19 05:28:13;;;;;;;10.55;7.60;;;7.40;92.70;;;;;;4975126;28;20132;-69
2023/04/19 05:30:41;;;;;;;9.63;7.00;;;7.50;92.60;;;;;;4991733;28;20041;-71
2023/04/19 05:33:16;;;;;;;9.93;7.45;;;7.50;92.40;;;;;;5001078;28;20038;-70
2023/04/19 05:35:42;;;;;;;11.65;6.75;;;7.50;92.30;;;;;;5002205;28;20056;-70
2023/04/19 05:38:11;;;;;;;9.88;6.68;;;7.60;92.10;;;;;;5006189;28;20034;-70
2023/04/19 05:40:37;;;;;;;12.73;7.00;;;7.60;91.70;;;;;;4987182;28;20096;-70
2023/04/19 05:43:03;;;;;;;10.80;6.93;;;7.70;91.60;;;;;;5001633;28;20042;-70
2023/04/19 05:45:29;;;;;;;11.32;6.43;;;7.70;91.40;;;;;;5007700;28;20053;-70
2023/04/19 05:47:55;;;;;;;9.73;6.25;;;7.70;91.10;;;;;;4987405;28;20489;-69
2023/04/19 05:50:20;;;;;;;10.45;6.60;;;7.70;90.70;;;;;;4982696;28;20057;-70
2023/04/19 05:52:46;;;;;;;11.15;6.38;;;7.80;90.60;;;;;;5010468;28;20060;-70
2023/04/19 05:55:12;;;;;;;10.98;6.60;;;7.80;90.40;;;;;;4987624;28;20062;-70
2023/04/19 05:57:37;;;;;;;10.32;6.43;;;7.90;90.30;;;;;;5001702;28;20620;-69
2023/04/19 06:00:04;;;;;;;9.15;6.53;;;7.90;90.00;;;;;;4984814;28;20050;-70
2023/04/19 06:02:29;;;;;;;9.02;6.15;;;8.00;89.50;;;;;;4985641;28;20065;-69
2023/04/19 06:04:56;;;;;;;9.68;6.40;;;8.10;89.10;;;;;;4992808;28;20037;-69
2023/04/19 06:07:22;;;;;;;10.00;6.20;;;8.10;88.70;;;;;;5006898;28;20052;-69
2023/04/19 06:09:48;;;;;;;8.30;6.20;;;8.20;88.20;;;;;;5008369;28;20096;-70
2023/04/19 06:12:14;;;;;;;7.93;5.68;;;8.20;87.50;;;;;;4978748;28;20059;-69
2023/04/19 06:14:39;;;;;;;8.98;5.40;;;8.20;86.60;;;;;;5006483;28;20054;-69
2023/04/19 06:17:05;;;;;;;8.95;5.93;;;8.20;86.50;;;;;;4994247;28;20046;-70
2023/04/19 06:19:32;;;;;;;8.95;5.53;;;8.30;86.40;;;;;;5009298;28;20383;-70
2023/04/19 06:22:00;;;;;;;8.40;5.40;;;8.40;85.90;;;;;;5009041;28;20038;-70
2023/04/19 06:24:26;;;;;;;10.77;5.95;;;8.40;85.50;;;;;;4981833;28;20054;-70
2023/04/19 06:26:52;;;;;;;8.60;5.20;;;8.50;83.80;;;;;;4999693;28;20038;-69
2023/04/19 06:29:20;;;;;;;9.00;5.50;;;8.50;84.10;;;;;;5003235;28;20092;-69
2023/04/19 06:31:46;;;;;;;9.73;5.32;;;8.50;83.00;;;;;;5004272;28;20109;-69
2023/04/19 06:34:12;;;;;;;7.80;5.10;;;8.50;82.20;;;;;;4991719;28;20117;-69
2023/04/19 06:36:38;;;;;;;9.35;5.63;;;8.50;82.10;;;;;;4985997;28;20053;-70
2023/04/19 06:39:03;;;;;;;9.95;4.97;;;8.60;81.50;;;;;;4982176;28;20046;-70
2023/04/19 06:41:30;;;;;;;8.27;4.82;;;8.60;81.00;;;;;;4982055;28;20050;-70
2023/04/19 06:43:55;;;;;;;9.15;4.60;;;8.70;80.90;;;;;;4984160;28;20049;-70
2023/04/19 06:46:21;;;;;;;7.63;4.90;;;8.70;80.70;;;;;;4982294;28;20041;-70
2023/04/19 06:48:46;;;;;;;8.10;4.88;;;8.80;81.00;;;;;;4975796;28;20050;-70
2023/04/19 06:51:12;;;;;;;8.10;4.22;;;8.90;79.80;;;;;;5005085;28;20030;-70
2023/04/19 06:53:38;;;;;;;6.32;4.07;;;9.00;79.60;;;;;;5002540;28;20041;-71
2023/04/19 06:56:07;;;;;;;8.32;3.75;;;9.00;78.80;;;;;;4998627;28;20054;-70
2023/04/19 06:58:32;;;;;;;8.23;4.50;;;9.00;77.90;;;;;;4999073;28;20050;-68
2023/04/19 07:01:00;;;;;;;8.80;4.00;;;9.00;77.80;;;;;;4999869;28;20085;-74
2023/04/19 07:03:25;;;;;;;4.47;3.60;;;9.10;77.80;;;;;;4998884;28;20058;-70
2023/04/19 07:05:51;;;;;;;6.43;3.30;;;9.20;78.00;;;;;;4992385;28;20554;-73
2023/04/19 07:08:17;;;;;;;5.38;3.53;;;9.20;77.10;;;;;;5008353;28;20026;-72
2023/04/19 07:10:43;;;;;;;7.88;3.58;;;9.30;76.60;;;;;;5005832;28;20042;-72
2023/04/19 07:13:12;;;;;;;6.15;3.72;;;9.30;75.70;;;;;;4987630;28;20041;-71
2023/04/19 07:15:37;;;;;;;5.18;3.22;;;9.30;75.40;;;;;;5005824;28;20042;-71
2023/04/19 07:18:03;;;;;;;5.88;3.42;;;9.40;75.30;;;;;;5002017;28;20114;-70
2023/04/19 07:20:30;;;;;;;6.47;3.80;;;9.40;75.50;;;;;;5001040;28;20125;-72
2023/04/19 07:22:59;;;;;;;4.38;2.95;;;9.50;75.00;;;;;;5011740;28;20050;-71
2023/04/19 07:25:25;;;;;;;6.80;3.30;;;9.50;74.20;;;;;;5004257;28;20052;-73
2023/04/19 07:27:55;;;;;;;5.43;3.25;;;9.60;73.90;;;;;;4987665;28;20131;-71
2023/04/19 07:30:21;;;;;;;8.23;2.88;;;9.60;72.60;;;;;;5003018;28;20049;-71
2023/04/19 07:32:47;;;;;;;6.00;3.00;;;9.60;72.90;;;;;;5009149;28;20036;-71
2023/04/19 07:35:12;;;;;;;5.20;3.00;;;9.70;72.90;;;;;;5008836;28;20404;-71
2023/04/19 07:37:38;;;;;;;4.03;2.85;;;9.70;72.90;;;;;;5008290;28;20038;-70
2023/04/19 07:40:05;;;;;;;3.72;2.97;;;9.80;72.70;;;;;;5007304;28;20046;-71
2023/04/19 07:42:30;;;;;;;6.78;3.83;;;9.80;72.20;;;;;;5008111;28;20092;-71
2023/04/19 07:44:56;;;;;;;5.80;3.13;;;9.90;71.90;;;;;;5009642;28;20128;-71
2023/04/19 07:47:22;;;;;;;6.63;3.10;;;10.00;71.80;;;;;;4983902;28;20476;-72
2023/04/19 07:49:54;;;;;;;6.00;3.03;;;10.00;72.10;;;;;;5004537;28;20038;-71
2023/04/19 07:52:20;;;;;;;5.47;3.50;;;10.10;71.60;;;;;;5002900;28;20034;-71
2023/04/19 07:54:46;;;;;;;6.40;3.05;;;10.20;71.50;;;;;;5004650;28;20049;-72
2023/04/19 07:57:11;;;;;;;4.50;3.03;;;10.40;71.60;;;;;;5008093;28;20350;-70
2023/04/19 07:59:37;;;;;;;4.72;3.00;;;10.40;69.40;;;;;;5008071;28;20037;-70
2023/04/19 08:02:06;;;;;;;4.65;2.90;;;10.50;68.40;;;;;;5000401;28;20045;-68
2023/04/19 08:04:44;;;;;;;8.45;3.20;;;10.50;67.80;;;;;;4999621;28;20058;-71
2023/04/19 08:07:10;;;;;;;6.47;3.13;;;10.60;66.70;;;;;;4999007;28;20046;-71
2023/04/19 08:09:36;;;;;;;8.63;3.00;;;10.60;66.70;;;;;;5000373;28;20430;-71
2023/04/19 08:12:02;;;;;;;7.40;3.25;;;10.60;65.90;;;;;;4997224;28;20069;-69
2023/04/19 08:14:41;;;;;;;10.50;3.83;;;10.60;65.90;;;;;;5008301;28;20061;-68
2023/04/19 08:17:07;;;;;;;5.35;3.40;;;10.70;66.00;;;;;;5007508;28;20046;-69
2023/04/19 08:19:32;;;;;;;7.18;3.60;;;10.80;66.80;;;;;;5007082;28;20045;-70
2023/04/19 08:21:58;;;;;;;9.93;3.67;;;10.90;67.20;;;;;;4981725;28;20157;-70
2023/04/19 08:24:24;;;;;;;6.53;3.25;;;10.90;65.70;;;;;;5002075;28;20041;-66
2023/04/19 08:26:52;;;;;;;7.22;3.20;;;11.00;64.70;;;;;;4996992;28;20047;-67
2023/04/19 08:29:19;;;;;;;5.60;3.03;;;11.10;64.30;;;;;;5007657;28;20048;-66
2023/04/19 08:31:45;;;;;;;5.05;3.58;;;11.10;63.50;;;;;;5007684;28;20125;-67
2023/04/19 08:34:11;;;;;;;5.50;3.42;;;11.20;63.60;;;;;;5008428;28;20129;-67
2023/04/19 08:36:36;;;;;;;7.32;3.92;;;11.20;63.70;;;;;;4999616;28;20073;-67
2023/04/19 08:39:02;;;;;;;7.18;3.85;;;11.30;63.40;;;;;;4997963;28;20635;-66
2023/04/19 08:41:29;;;;;;;6.13;3.50;;;11.30;63.50;;;;;;5004504;28;20033;-67
2023/04/19 08:43:56;;;;;;;7.78;3.10;;;11.40;63.30;;;;;;5008098;28;20721;-67
2023/04/19 08:46:23;;;;;;;4.70;3.45;;;11.50;63.30;;;;;;5005537;28;20048;-67
2023/04/19 08:48:50;;;;;;;14.30;4.00;;;11.60;63.30;;;;;;5003442;28;20052;-67
2023/04/19 08:51:16;;;;;;;4.93;3.50;;;11.70;63.10;;;;;;5007146;28;20038;-67
2023/04/19 08:53:43;;;;;;;5.90;3.72;;;11.80;62.00;;;;;;5007260;28;20042;-67
2023/04/19 08:56:09;;;;;;;4.28;3.20;;;11.80;60.80;;;;;;5007909;28;20103;-67
2023/04/19 08:58:35;;;;;;;7.68;3.22;;;11.80;60.50;;;;;;5002382;28;20729;-67
2023/04/19 09:01:03;;;;;;;7.15;3.17;;;11.90;60.70;;;;;;5002454;28;20113;-67
2023/04/19 09:03:31;;;;;;;4.65;3.38;;;12.00;59.80;;;;;;4998061;28;20045;-70
2023/04/19 09:06:00;;;;;;;4.95;3.17;;;12.00;59.90;;;;;;4983448;28;20056;-68
2023/04/19 09:08:28;;;;;;;6.72;3.38;;;12.10;58.50;;;;;;5001731;28;20053;-69
2023/04/19 09:11:01;;;;;;;8.45;2.70;;;12.10;57.70;;;;;;5007738;28;20073;-69
2023/04/19 09:13:28;;;;;;;5.20;2.83;;;12.10;56.60;;;;;;5001428;28;20045;-69
2023/04/19 09:16:00;;;;;;;6.03;3.10;;;12.10;56.10;;;;;;5004837;28;20038;-68
2023/04/19 09:18:30;;;;;;;6.72;3.00;;;12.10;55.70;;;;;;4968959;28;20043;-68
2023/04/19 09:20:56;;;;;;;4.78;3.00;;;12.10;55.60;;;;;;5000876;28;20046;-70
2023/04/19 09:23:29;;;;;;;6.18;3.20;;;12.10;56.20;;;;;;4975342;28;20046;-69
2023/04/19 09:25:59;;;;;;;5.30;3.05;;;12.10;56.10;;;;;;4994501;28;20133;-68
2023/04/19 09:28:25;;;;;;;5.63;3.00;;;12.20;55.90;;;;;;4991817;28;20065;-69
2023/04/19 09:30:51;;;;;;;6.82;3.40;;;12.30;56.60;;;;;;5000447;28;20401;-70
2023/04/19 09:33:38;;;;;;;6.03;3.20;;;12.40;56.40;;;;;;5005846;28;20049;-69
2023/04/19 09:36:07;;;;;;;5.60;2.90;;;12.50;57.40;;;;;;4992594;28;20108;-69
2023/04/19 09:38:48;;;;;;;5.72;3.15;;;12.60;57.10;;;;;;5006471;28;20513;-68
2023/04/19 09:41:16;;;;;;;4.95;3.08;;;12.60;56.80;;;;;;4990771;28;20054;-69
2023/04/19 09:43:42;;;;;;;6.03;3.33;;;12.70;56.40;;;;;;5000858;28;20171;-69
2023/04/19 09:46:08;;;;;;;4.03;2.85;;;12.60;56.50;;;;;;5006546;28;20041;-68
2023/04/19 09:48:35;;;;;;;3.72;2.80;;;12.60;54.80;;;;;;5005433;28;20042;-68
2023/04/19 09:51:01;;;;;;;4.57;2.95;;;12.50;54.90;;;;;;5004759;28;20666;-69
2023/04/19 09:53:29;;;;;;;4.80;2.80;;;12.50;55.20;;;;;;4987702;28;20056;-69
2023/04/19 09:55:54;;;;;;;;;;;12.50;55.50;;;;;;5006225;28;20082;-69
2023/04/19 09:58:20;;;;;;;8.18;2.85;;;12.60;55.90;;;;;;5005646;28;20023;-69
2023/04/19 10:00:48;;;;;;;6.03;2.50;;;12.60;55.90;;;;;;4990188;28;20054;-68
2023/04/19 10:03:17;;;;;;;8.30;2.67;;;12.80;55.40;;;;;;5006126;28;20125;-69
2023/04/19 10:05:44;;;;;;;4.53;2.42;;;12.90;55.00;;;;;;5004040;28;20392;-69
2023/04/19 10:08:11;;;;;;;4.77;2.93;;;13.00;54.10;;;;;;5000414;28;20413;-70
2023/04/19 10:10:39;;;;;;;5.80;2.75;;;13.00;52.80;;;;;;4985571;28;20045;-71
2023/04/19 10:13:08;;;;;;;4.78;3.05;;;13.00;52.80;;;;;;5003563;28;20054;-72
2023/04/19 10:15:46;;;;;;;5.13;2.55;;;13.00;52.30;;;;;;4998435;28;20038;-71
2023/04/19 10:18:12;;;;;;;5.82;2.58;;;13.00;52.30;;;;;;4995907;28;20068;-72
2023/04/19 10:21:00;;;;;;;5.43;2.60;;;13.10;51.90;;;;;;5000638;28;20684;-71
2023/04/19 10:23:29;;;;;;;3.85;2.42;;;13.20;51.80;;;;;;5007993;28;20048;-72
2023/04/19 10:26:02;;;;;;;5.47;2.80;;;13.30;50.50;;;;;;4998913;28;20444;-72
2023/04/19 10:28:34;;;;;;;8.35;2.72;;;13.30;50.60;;;;;;5006325;28;20046;-71
2023/04/19 10:31:08;;;;;;;5.40;2.67;;;13.40;50.60;;;;;;5003174;28;20035;-72
2023/04/19 10:33:35;;;;;;;5.97;2.78;;;13.50;49.40;;;;;;5009072;28;20636;-74
2023/04/19 10:36:01;;;;;;;6.30;2.60;;;13.50;48.40;;;;;;5003241;28;20042;-70
2023/04/19 10:38:42;;;;;;;5.53;2.60;;;13.40;49.00;;;;;;5004192;28;20053;-72
2023/04/19 10:41:10;;;;;;;7.63;2.78;;;13.50;48.70;;;;;;4997912;28;20049;-70
2023/04/19 10:43:42;;;;;;;5.43;2.50;;;13.50;48.60;;;;;;5006184;28;20038;-70
2023/04/19 10:46:28;;;;;;;4.32;2.53;;;13.50;48.70;;;;;;5003197;28;20046;-69
2023/04/19 10:48:58;;;;;;;6.03;2.53;;;13.60;48.40;;;;;;4988270;28;20410;-71
2023/04/19 10:51:38;;;;;;;5.13;2.60;;;13.60;47.70;;;;;;4996748;28;20117;-68
2023/04/19 10:54:03;;;;;;;6.50;2.55;;;13.60;47.90;;;;;;4997105;28;20092;-68
2023/04/19 10:56:32;;;;;;;4.43;2.38;;;13.60;48.40;;;;;;5006718;28;20057;-68
2023/04/19 10:59:10;;;;;;;6.00;2.50;;;13.70;49.00;;;;;;4998379;28;20054;-68
2023/04/19 11:01:44;;;;;;;6.53;2.78;;;13.80;48.60;;;;;;4996387;28;20050;-68
2023/04/19 11:04:14;;;;;;;3.90;2.40;;;13.90;48.10;;;;;;5006074;28;20069;-68
2023/04/19 11:06:50;;;;;;;4.53;2.63;;;14.00;47.60;;;;;;4998034;28;20068;-68
2023/04/19 11:09:30;;;;;;;5.80;2.20;;;14.00;46.80;;;;;;5008918;28;20050;-69
2023/04/19 11:12:07;;;;;;;4.22;2.40;;;14.00;48.30;;;;;;5001531;28;20107;-69
2023/04/19 11:14:45;;;;;;;4.77;2.77;;;14.10;48.20;;;;;;5004710;28;20120;-69
2023/04/19 11:17:24;;;;;;;4.85;2.45;;;14.10;48.20;;;;;;5004274;28;20129;-68
2023/04/19 11:20:08;;;;;;;3.58;2.25;;;14.20;47.70;;;;;;5003243;28;20041;-68
2023/04/19 11:22:38;;;;;;;7.63;2.60;;;14.10;47.80;;;;;;5008651;28;20051;-69
2023/04/19 11:25:19;;;;;;;6.70;2.55;;;14.20;48.90;;;;;;5009550;28;20045;-69
2023/04/19 11:27:54;;;;;;;5.03;2.38;;;14.30;48.70;;;;;;5010352;28;20084;-69
2023/04/19 11:30:28;;;;;;;7.38;2.92;;;14.30;49.50;;;;;;4997329;28;20035;-69
2023/04/19 11:32:55;;;;;;;6.93;2.90;;;14.30;49.10;;;;;;5006214;28;20117;-68
2023/04/19 11:35:29;;;;;;;5.32;2.50;;;14.40;48.90;;;;;;5006974;28;20557;-68
2023/04/19 11:37:57;;;;;;;3.58;2.72;;;14.40;49.50;;;;;;5004228;28;20700;-68
2023/04/19 11:40:25;;;;;;;4.32;2.65;;;14.40;49.70;;;;;;5005325;28;20037;-68
2023/04/19 11:42:55;;;;;;;6.05;2.80;;;14.40;50.20;;;;;;4986849;28;20045;-67
2023/04/19 11:45:29;;;;;;;3.72;2.70;;;14.40;49.50;;;;;;5002558;28;20038;-68
2023/04/19 11:47:56;;;;;;;4.75;2.47;;;14.40;50.20;;;;;;5002954;28;20148;-67
2023/04/19 11:50:39;;;;;;;6.37;2.70;;;14.50;50.80;;;;;;5000025;28;20046;-68
2023/04/19 11:53:15;;;;;;;8.35;2.88;;;14.60;50.00;;;;;;4999751;28;20054;-66
2023/04/19 11:55:52;;;;;;;4.47;2.78;;;14.60;50.80;;;;;;4995520;28;20057;-65
2023/04/19 11:58:25;;;;;;;5.47;3.15;;;14.60;51.80;;;;;;5003126;28;20050;-66
2023/04/19 12:00:51;;;;;;;3.88;2.90;;;14.70;51.70;;;;;;5000672;28;20046;-67
2023/04/19 12:03:22;;;;;;;4.97;2.83;;;14.70;50.90;;;;;;5004931;28;20100;-67
2023/04/19 12:05:55;;;;;;;5.78;3.38;;;14.70;50.10;;;;;;5007020;28;20084;-67
2023/04/19 12:08:38;;;;;;;4.80;3.20;;;14.70;50.60;;;;;;4984299;28;20452;-67
2023/04/19 12:11:05;;;;;;;4.75;3.00;;;14.70;50.70;;;;;;4997423;28;20042;-70
2023/04/19 12:13:31;;;;;;;5.97;3.33;;;14.70;51.30;;;;;;5004600;28;20046;-69
2023/04/19 12:15:58;;;;;;;6.87;3.10;;;14.80;51.10;;;;;;5007643;28;20254;-68
2023/04/19 12:18:24;;;;;;;5.68;3.42;;;14.80;50.20;;;;;;5005596;28;20488;-68
2023/04/19 12:20:51;;;;;;;5.43;3.33;;;14.80;50.90;;;;;;5002833;28;20045;-67
2023/04/19 12:23:18;;;;;;;3.88;3.25;;;14.90;51.00;;;;;;5004340;28;20092;-68
2023/04/19 12:25:47;;;;;;;;;;;14.90;50.50;;;;;;5003846;28;20140;-67
2023/04/19 12:28:14;;;;;;;4.32;3.35;;;15.00;50.40;;;;;;4992902;28;20293;-67
2023/04/19 12:30:40;;;;;;;5.38;3.55;;;15.00;50.20;;;;;;5003554;28;20053;-67
2023/04/19 12:33:07;;;;;;;5.88;3.25;;;15.00;49.50;;;;;;5004762;28;20056;-69
2023/04/19 12:35:33;;;;;;;5.87;3.17;;;15.00;50.10;;;;;;5003558;28;20044;-69
2023/04/19 12:37:59;;;;;;;5.20;3.20;;;15.00;50.60;;;;;;5003156;28;20042;-67
2023/04/19 12:40:25;;;;;;;4.68;3.28;;;15.10;49.50;;;;;;4998189;28;20491;-67
2023/04/19 12:42:52;;;;;;;6.03;3.50;;;15.20;49.10;;;;;;5008236;28;20136;-68
2023/04/19 12:45:19;;;;;;;3.60;2.97;;;15.10;49.30;;;;;;5007727;28;20413;-67
2023/04/19 12:47:46;;;;;;;5.80;3.00;;;15.20;48.90;;;;;;5008342;28;20046;-67
2023/04/19 12:50:13;;;;;;;5.40;3.38;;;15.20;49.50;;;;;;5004162;28;20843;-67